Time;durP1;ratioP1;P1;durP2;ratioP2;P2;SDS_P1;SDS_P2;PMS_P1;PMS_P2;Temp;Humidity;BMP_temperature;BMP_pressure;BME280_temperature;BME280_humidity;BME280_pressure;Samples;Min_cycle;Max_cycle;Signal;HPM_P1;HPM_P2
2023/04/11 00:00:28;;;;;;;13.57;1.50;;;;;;;7.47;100.00;100548.69;4957421;28;21178;-72
2023/04/11 00:02:58;;;;;;;6.80;1.83;;;;;;;7.39;100.00;100548.94;4938881;28;20974;-72
2023/04/11 00:05:26;;;;;;;4.93;1.38;;;;;;;7.29;100.00;100548.44;4942532;28;20044;-72
2023/04/11 00:07:51;;;;;;;3.95;1.25;;;;;;;7.23;100.00;100560.97;4941066;28;20648;-72
2023/04/11 00:10:17;;;;;;;3.85;1.00;;;;;;;7.14;100.00;100559.53;4945165;28;20074;-72
2023/04/11 00:12:42;;;;;;;5.43;1.80;;;;;;;7.07;100.00;100556.22;4910157;28;20069;-72
2023/04/11 00:15:08;;;;;;;6.97;0.88;;;;;;;7.01;100.00;100561.72;4946615;28;20043;-73
2023/04/11 00:17:36;;;;;;;2.67;1.17;;;;;;;6.93;100.00;100552.31;4940903;28;20144;-70
2023/04/11 00:20:06;;;;;;;5.05;0.98;;;;;;;6.87;100.00;100557.78;4957477;28;20055;-71
2023/04/11 00:22:37;;;;;;;1.92;0.90;;;;;;;6.81;100.00;100557.16;4959777;28;20038;-72
2023/04/11 00:25:04;;;;;;;4.65;1.20;;;;;;;6.76;100.00;100555.53;4963715;28;20058;-72
2023/04/11 00:27:29;;;;;;;3.75;0.80;;;;;;;6.72;100.00;100555.69;4964214;28;20042;-72
2023/04/11 00:29:56;;;;;;;3.17;0.88;;;;;;;6.66;100.00;100554.13;4941452;28;20031;-72
2023/04/11 00:32:25;;;;;;;2.03;0.88;;;;;;;6.60;100.00;100552.53;4944029;28;20069;-72
2023/04/11 00:34:51;;;;;;;3.58;1.25;;;;;;;6.59;100.00;100566.63;4962008;28;20121;-72
2023/04/11 00:37:20;;;;;;;4.70;1.08;;;;;;;6.56;100.00;100564.09;4934674;28;20034;-72
2023/04/11 00:39:51;;;;;;;1.58;0.90;;;;;;;6.55;100.00;100565.00;4963578;28;20046;-72
2023/04/11 00:42:18;;;;;;;4.00;0.80;;;;;;;6.51;100.00;100566.00;4942222;28;20029;-73
2023/04/11 00:44:43;;;;;;;6.80;1.20;;;;;;;6.53;100.00;100566.81;4920526;28;20932;-72
2023/04/11 00:47:09;;;;;;;1.73;0.57;;;;;;;6.50;100.00;100564.31;4961800;28;20043;-71
2023/04/11 00:49:35;;;;;;;0.82;0.60;;;;;;;6.51;100.00;100564.25;4947447;28;20038;-72
2023/04/11 00:52:02;;;;;;;4.35;1.27;;;;;;;6.52;100.00;100565.09;4916343;28;20043;-72
2023/04/11 00:54:28;;;;;;;3.00;0.77;;;;;;;6.53;100.00;100566.81;4964164;28;20446;-72
2023/04/11 00:57:02;;;;;;;1.85;0.90;;;;;;;6.55;100.00;100565.00;4927645;28;20136;-72
2023/04/11 00:59:28;;;;;;;6.68;1.27;;;;;;;6.57;100.00;100565.81;4960512;28;20049;-72
2023/04/11 01:01:54;;;;;;;4.88;1.30;;;;;;;6.57;100.00;100565.81;4964946;28;20062;-72
2023/04/11 01:04:20;;;;;;;4.93;0.95;;;;;;;6.57;100.00;100567.56;4963902;28;20125;-72
2023/04/11 01:06:50;;;;;;;2.15;0.88;;;;;;;6.55;100.00;100562.38;4947560;28;20081;-72
2023/04/11 01:09:15;;;;;;;2.60;0.90;;;;;;;6.54;100.00;100560.63;4930166;28;20034;-72
2023/04/11 01:11:41;;;;;;;2.80;0.90;;;;;;;6.53;100.00;100556.28;4942169;28;20035;-72
2023/04/11 01:14:07;;;;;;;3.38;0.85;;;;;;;6.48;100.00;100560.88;4931219;28;20276;-72
2023/04/11 01:16:32;;;;;;;2.85;0.80;;;;;;;6.43;100.00;100562.78;4944064;28;20045;-72
2023/04/11 01:18:58;;;;;;;2.78;0.70;;;;;;;6.37;100.00;100556.81;4963578;28;20042;-71
2023/04/11 01:21:25;;;;;;;1.95;1.15;;;;;;;6.34;100.00;100554.28;4940379;28;20042;-71
2023/04/11 01:23:53;;;;;;;1.73;0.70;;;;;;;6.30;100.00;100557.91;4939979;28;20045;-71
2023/04/11 01:26:18;;;;;;;2.92;0.50;;;;;;;6.27;100.00;100565.03;4963476;28;20035;-72
2023/04/11 01:28:44;;;;;;;1.65;0.70;;;;;;;6.25;100.00;100559.81;4946082;28;20045;-72
2023/04/11 01:31:10;;;;;;;1.55;0.60;;;;;;;6.22;100.00;100567.81;4963445;28;20034;-71
2023/04/11 01:33:36;;;;;;;2.45;0.80;;;;;;;6.21;100.00;100561.69;4962721;28;20034;-73
2023/04/11 01:36:02;;;;;;;3.20;0.82;;;;;;;6.21;100.00;100563.47;4963919;28;20042;-72
2023/04/11 01:38:27;;;;;;;1.25;0.70;;;;;;;6.20;100.00;100565.25;4963281;28;20882;-71
2023/04/11 01:40:53;;;;;;;1.25;0.73;;;;;;;6.19;100.00;100560.88;4959925;28;20038;-73
2023/04/11 01:43:19;;;;;;;1.77;0.60;;;;;;;6.18;100.00;100555.69;4941554;28;20681;-72
2023/04/11 01:45:45;;;;;;;0.70;0.50;;;;;;;6.17;100.00;100562.72;4963727;28;20037;-72
2023/04/11 01:48:10;;;;;;;2.10;0.70;;;;;;;6.16;100.00;100563.59;4964085;28;20030;-71
2023/04/11 01:50:36;;;;;;;1.77;0.90;;;;;;;6.16;100.00;100568.84;4958500;28;20042;-71
2023/04/11 01:53:02;;;;;;;4.82;0.93;;;;;;;6.16;100.00;100570.66;4964306;28;20037;-71
2023/04/11 01:55:28;;;;;;;2.30;0.80;;;;;;;6.14;100.00;100569.84;4941455;28;20049;-72
2023/04/11 01:57:53;;;;;;;0.88;0.70;;;;;;;6.13;100.00;100574.22;4947045;28;20689;-71
2023/04/11 02:00:19;;;;;;;1.70;0.80;;;;;;;6.11;100.00;100571.63;4961165;28;21736;-73
2023/04/11 02:02:45;;;;;;;1.67;0.80;;;;;;;6.10;100.00;100575.19;4962729;28;20684;-71
2023/04/11 02:05:10;;;;;;;1.92;0.90;;;;;;;6.10;100.00;100576.97;4941677;28;20177;-72
2023/04/11 02:07:36;;;;;;;0.73;0.68;;;;;;;6.07;100.00;100577.91;4962677;28;20042;-72
2023/04/11 02:10:02;;;;;;;1.15;0.63;;;;;;;6.06;100.00;100573.53;4959383;28;20567;-72
2023/04/11 02:12:28;;;;;;;2.72;1.02;;;;;;;6.07;100.00;100563.91;4946524;28;20088;-72
2023/04/11 02:14:53;;;;;;;1.85;1.02;;;;;;;6.05;100.00;100573.63;4948376;28;20058;-72
2023/04/11 02:17:19;;;;;;;2.70;1.00;;;;;;;6.04;100.00;100577.16;4960420;28;20624;-72
2023/04/11 02:19:45;;;;;;;1.70;0.88;;;;;;;6.05;100.00;100577.06;4948280;28;20588;-72
2023/04/11 02:22:11;;;;;;;1.55;0.90;;;;;;;6.06;100.00;100580.59;4962638;28;20031;-72
2023/04/11 02:24:37;;;;;;;3.80;1.20;;;;;;;6.06;100.00;100575.31;4960146;28;20689;-73
2023/04/11 02:27:02;;;;;;;3.55;1.20;;;;;;;6.07;100.00;100577.91;4938461;28;20044;-72
2023/04/11 02:29:28;;;;;;;3.70;1.10;;;;;;;6.08;100.00;100571.75;4942091;28;20755;-73
2023/04/11 02:31:54;;;;;;;2.03;1.10;;;;;;;6.11;100.00;100582.16;4930693;28;20606;-73
2023/04/11 02:34:19;;;;;;;3.70;1.17;;;;;;;6.14;100.00;100580.34;4958919;28;20068;-72
2023/04/11 02:36:48;;;;;;;4.05;1.38;;;;;;;6.16;100.00;100576.75;4960962;28;20038;-72
2023/04/11 02:39:14;;;;;;;6.43;1.30;;;;;;;6.20;100.00;100591.53;4930475;28;20046;-72
2023/04/11 02:41:41;;;;;;;3.97;1.30;;;;;;;6.22;100.00;100583.59;4963175;28;20041;-72
2023/04/11 02:44:09;;;;;;;2.55;1.50;;;;;;;6.24;100.00;100587.03;4958226;28;20049;-72
2023/04/11 02:46:34;;;;;;;4.50;1.30;;;;;;;6.26;100.00;100587.84;4962836;28;20034;-72
2023/04/11 02:49:00;;;;;;;5.40;1.42;;;;;;;6.30;100.00;100589.47;4918363;28;20105;-71
2023/04/11 02:51:26;;;;;;;5.65;1.50;;;;;;;6.33;100.00;100592.00;4961814;28;20148;-72
2023/04/11 02:53:51;;;;;;;5.60;1.55;;;;;;;6.37;100.00;100595.38;4959472;28;20038;-72
2023/04/11 02:56:20;;;;;;;8.68;1.50;;;;;;;6.39;100.00;100591.78;4961855;28;20050;-72
2023/04/11 02:58:46;;;;;;;3.17;1.00;;;;;;;6.42;100.00;100597.88;4962843;28;20104;-72
2023/04/11 03:01:13;;;;;;;7.68;1.55;;;;;;;6.44;100.00;100601.31;4943989;28;20607;-72
2023/04/11 03:03:40;;;;;;;4.32;1.33;;;;;;;6.46;100.00;100607.38;4946171;28;20045;-72
2023/04/11 03:06:06;;;;;;;5.40;1.23;;;;;;;6.47;100.00;100599.44;4927211;28;20042;-71
2023/04/11 03:08:32;;;;;;;6.00;1.38;;;;;;;6.50;100.00;100598.50;4962777;28;20053;-72
2023/04/11 03:10:57;;;;;;;4.53;1.50;;;;;;;6.51;100.00;100605.47;4960444;28;20035;-71
2023/04/11 03:13:24;;;;;;;3.45;0.93;;;;;;;6.54;100.00;100604.50;4962298;28;21354;-72
2023/04/11 03:15:49;;;;;;;4.63;1.73;;;;;;;6.52;100.00;100607.19;4961931;28;20035;-72
2023/04/11 03:18:15;;;;;;;3.28;1.27;;;;;;;6.53;100.00;100606.28;4962565;28;21713;-72
2023/04/11 03:20:43;;;;;;;2.33;1.35;;;;;;;6.53;100.00;100608.91;4942689;28;20051;-72
2023/04/11 03:23:09;;;;;;;5.40;1.20;;;;;;;6.52;100.00;100609.81;4961828;28;20046;-72
2023/04/11 03:25:36;;;;;;;3.70;1.33;;;;;;;6.51;100.00;100601.09;4946408;28;20153;-72
2023/04/11 03:28:02;;;;;;;4.07;1.20;;;;;;;6.52;100.00;100608.06;4962956;28;20057;-72
2023/04/11 03:30:28;;;;;;;4.35;0.98;;;;;;;6.53;100.00;100603.63;4965276;28;20038;-72
2023/04/11 03:32:54;;;;;;;4.13;1.00;;;;;;;6.52;100.00;100612.44;4963514;28;20132;-71
2023/04/11 03:35:19;;;;;;;3.90;1.60;;;;;;;6.54;100.00;100615.03;4926633;28;20160;-71
2023/04/11 03:37:46;;;;;;;5.45;1.20;;;;;;;6.53;100.00;100614.16;4960904;28;20039;-72
2023/04/11 03:40:12;;;;;;;7.07;1.42;;;;;;;6.53;100.00;100614.16;4929428;28;20065;-72
2023/04/11 03:42:37;;;;;;;7.07;1.52;;;;;;;6.52;100.00;100613.31;4946157;28;20121;-72
2023/04/11 03:45:03;;;;;;;4.50;2.00;;;;;;;6.53;100.00;100619.41;4947568;28;20397;-72
2023/04/11 03:47:29;;;;;;;6.22;1.55;;;;;;;6.54;100.00;100621.13;4963625;28;21057;-72
2023/04/11 03:49:55;;;;;;;2.33;1.33;;;;;;;6.55;100.00;100622.00;4965765;28;20950;-72
2023/04/11 03:52:21;;;;;;;5.07;1.27;;;;;;;6.55;100.00;100620.25;4963639;28;20038;-72
2023/04/11 03:54:46;;;;;;;1.75;1.30;;;;;;;6.56;100.00;100626.34;4943143;28;20493;-72
2023/04/11 03:57:12;;;;;;;1.67;1.40;;;;;;;6.56;100.00;100631.63;4965440;28;20507;-72
2023/04/11 03:59:37;;;;;;;4.00;1.50;;;;;;;6.54;100.00;100625.56;4947441;28;20508;-72
2023/04/11 04:02:03;;;;;;;3.03;1.15;;;;;;;6.51;100.00;100616.00;4963849;28;20038;-72
2023/04/11 04:04:31;;;;;;;3.40;0.98;;;;;;;6.51;100.00;100629.13;4960107;28;20038;-72
2023/04/11 04:06:56;;;;;;;5.32;1.13;;;;;;;6.49;100.00;100628.34;4946514;28;20759;-72
2023/04/11 04:09:22;;;;;;;9.05;1.70;;;;;;;6.47;100.00;100617.00;4949587;28;20048;-72
2023/04/11 04:11:48;;;;;;;3.47;1.45;;;;;;;6.46;100.00;100633.69;4945436;28;20073;-72
2023/04/11 04:14:14;;;;;;;4.20;1.40;;;;;;;6.42;100.00;100632.06;4963371;28;20042;-72
2023/04/11 04:16:40;;;;;;;5.47;1.23;;;;;;;6.41;100.00;100635.59;4961692;28;20112;-72
2023/04/11 04:19:05;;;;;;;4.22;1.38;;;;;;;6.36;100.00;100639.25;4942762;28;21014;-72
2023/04/11 04:21:31;;;;;;;4.05;1.10;;;;;;;6.36;100.00;100631.34;4963967;28;20070;-72
2023/04/11 04:24:02;;;;;;;5.97;1.40;;;;;;;6.32;100.00;100623.59;4965536;28;20038;-72
2023/04/11 04:26:28;;;;;;;6.65;1.70;;;;;;;6.29;100.00;100632.44;4965522;28;20162;-73
2023/04/11 04:28:56;;;;;;;4.50;1.80;;;;;;;6.26;100.00;100632.53;4962420;28;20053;-72
2023/04/11 04:31:24;;;;;;;5.00;1.13;;;;;;;6.24;100.00;100632.59;4942140;28;20081;-72
2023/04/11 04:33:50;;;;;;;6.63;1.65;;;;;;;6.23;100.00;100632.63;4965726;28;20086;-74
2023/04/11 04:36:19;;;;;;;4.95;1.63;;;;;;;6.23;100.00;100636.09;4962287;28;20450;-73
2023/04/11 04:38:44;;;;;;;4.35;1.42;;;;;;;6.24;100.00;100647.50;4942868;28;20040;-74
2023/04/11 04:41:14;;;;;;;3.42;1.42;;;;;;;6.27;100.00;100649.19;4964707;28;20034;-73
2023/04/11 04:43:43;;;;;;;4.40;1.10;;;;;;;6.28;100.00;100641.25;4964209;28;20092;-72
2023/04/11 04:46:09;;;;;;;9.88;1.77;;;;;;;6.32;100.00;100647.28;4950090;28;20034;-72
2023/04/11 04:48:35;;;;;;;7.20;1.40;;;;;;;6.35;100.00;100648.03;4961566;28;20129;-72
2023/04/11 04:51:03;;;;;;;5.82;1.42;;;;;;;6.35;100.00;100658.56;4964696;28;20537;-72
2023/04/11 04:53:28;;;;;;;3.78;1.27;;;;;;;6.36;100.00;100652.38;4949461;28;20081;-72
2023/04/11 04:55:54;;;;;;;6.07;1.30;;;;;;;6.36;100.00;100655.03;4963803;28;20137;-71
2023/04/11 04:58:19;;;;;;;5.35;1.40;;;;;;;6.38;100.00;100661.06;4946328;28;20065;-73
2023/04/11 05:00:48;;;;;;;5.78;1.35;;;;;;;6.38;100.00;100661.06;4960504;28;20030;-72
2023/04/11 05:03:16;;;;;;;7.18;1.50;;;;;;;6.38;100.00;100661.06;4965174;28;20027;-72
2023/04/11 05:05:41;;;;;;;2.63;1.55;;;;;;;6.41;100.00;100664.50;4944553;28;20196;-73
2023/04/11 05:08:07;;;;;;;3.30;1.88;;;;;;;6.41;100.00;100668.03;4964978;28;20482;-72
2023/04/11 05:10:32;;;;;;;3.72;1.42;;;;;;;6.42;100.00;100674.16;4964162;28;20487;-72
2023/04/11 05:12:58;;;;;;;5.68;1.70;;;;;;;6.41;100.00;100675.91;4930338;28;20042;-73
2023/04/11 05:15:23;;;;;;;3.30;1.60;;;;;;;6.42;100.00;100679.41;4945926;28;20551;-72
2023/04/11 05:17:49;;;;;;;3.55;1.65;;;;;;;6.42;100.00;100682.03;4962511;28;20244;-72
2023/04/11 05:20:15;;;;;;;3.03;1.13;;;;;;;6.41;100.00;100683.78;4959832;28;20057;-73
2023/04/11 05:22:41;;;;;;;3.47;1.50;;;;;;;6.43;100.00;100686.38;4948103;28;20407;-72
2023/04/11 05:25:08;;;;;;;2.70;1.20;;;;;;;6.44;100.00;100693.38;4946430;28;20120;-72
2023/04/11 05:27:33;;;;;;;4.47;1.27;;;;;;;6.44;100.00;100685.47;4945779;28;20108;-72
2023/04/11 05:30:00;;;;;;;2.45;1.42;;;;;;;6.44;100.00;100693.38;4963660;28;20042;-71
2023/04/11 05:32:26;;;;;;;4.72;1.38;;;;;;;6.44;100.00;100693.38;4931933;28;20031;-71
2023/04/11 05:34:53;;;;;;;5.90;1.40;;;;;;;6.45;100.00;100695.09;4945115;28;21056;-71
2023/04/11 05:37:22;;;;;;;3.58;1.15;;;;;;;6.47;100.00;100704.66;4937452;28;20046;-73
2023/04/11 05:39:47;;;;;;;5.13;1.55;;;;;;;6.49;100.00;100715.97;4927339;28;20042;-73
2023/04/11 05:42:14;;;;;;;3.55;1.58;;;;;;;6.51;100.00;100705.41;4954596;28;20038;-74
2023/04/11 05:44:40;;;;;;;3.70;1.30;;;;;;;6.53;100.00;100711.47;4960586;28;20053;-72
2023/04/11 05:47:05;;;;;;;8.10;1.40;;;;;;;6.53;100.00;100708.84;4960242;28;20034;-73
2023/04/11 05:49:31;;;;;;;3.97;1.27;;;;;;;6.56;100.00;100724.56;4921655;28;20042;-73
2023/04/11 05:51:56;;;;;;;6.90;1.33;;;;;;;6.56;100.00;100729.81;4939463;28;20049;-74
2023/04/11 05:54:31;;;;;;;2.83;1.38;;;;;;;6.58;100.00;100724.53;4959573;28;20042;-73
2023/04/11 05:56:57;;;;;;;5.78;1.63;;;;;;;6.59;100.00;100731.50;4941076;28;20042;-74
2023/04/11 05:59:22;;;;;;;5.57;1.48;;;;;;;6.59;100.00;100740.22;4941421;28;21339;-74
2023/04/11 06:01:49;;;;;;;5.47;1.55;;;;;;;6.60;100.00;100735.84;4930421;28;20038;-73
2023/04/11 06:04:15;;;;;;;8.02;1.63;;;;;;;6.61;100.00;100748.97;4921599;28;20048;-73
2023/04/11 06:06:42;;;;;;;3.85;1.55;;;;;;;6.61;100.00;100745.47;4954885;28;20034;-74
2023/04/11 06:09:09;;;;;;;5.53;1.40;;;;;;;6.61;100.00;100750.72;4939877;28;20026;-74
2023/04/11 06:11:35;;;;;;;4.50;1.50;;;;;;;6.62;100.00;100749.81;4938481;28;20513;-74
2023/04/11 06:14:02;;;;;;;4.18;1.70;;;;;;;6.61;100.00;100756.84;4934295;28;20047;-73
2023/04/11 06:16:28;;;;;;;4.00;0.98;;;;;;;6.61;100.00;100762.13;4918432;28;20096;-74
2023/04/11 06:18:53;;;;;;;6.93;1.38;;;;;;;6.59;100.00;100760.44;4937349;28;20042;-74
2023/04/11 06:21:19;;;;;;;7.30;1.58;;;;;;;6.59;100.00;100758.66;4952346;28;20038;-73
2023/04/11 06:23:44;;;;;;;5.82;1.33;;;;;;;6.58;100.00;100769.25;4919109;28;20054;-73
2023/04/11 06:26:10;;;;;;;7.78;1.55;;;;;;;6.56;100.00;100766.66;4953612;28;20166;-74
2023/04/11 06:28:35;;;;;;;3.17;1.30;;;;;;;6.58;100.00;100777.97;4953487;28;20038;-74
2023/04/11 06:31:02;;;;;;;3.15;1.20;;;;;;;6.57;100.00;100781.53;4949391;28;20140;-74
2023/04/11 06:33:27;;;;;;;5.38;1.20;;;;;;;6.60;100.00;100783.19;4938049;28;20080;-74
2023/04/11 06:35:53;;;;;;;6.47;1.45;;;;;;;6.62;100.00;100792.78;4948884;28;20124;-74
2023/04/11 06:38:18;;;;;;;5.95;1.42;;;;;;;6.64;100.00;100784.81;4927732;28;20046;-74
2023/04/11 06:40:44;;;;;;;5.82;1.15;;;;;;;6.69;100.00;100784.69;4950175;28;20105;-74
2023/04/11 06:43:10;;;;;;;7.15;1.17;;;;;;;6.71;100.00;100791.63;4957059;28;20054;-74
2023/04/11 06:45:35;;;;;;;2.85;1.48;;;;;;;6.73;100.00;100795.09;4951219;28;20053;-73
2023/04/11 06:48:01;;;;;;;5.40;1.42;;;;;;;6.75;100.00;100802.94;4931732;28;20189;-74
2023/04/11 06:50:26;;;;;;;8.13;1.40;;;;;;;6.79;100.00;100802.78;4951522;28;20117;-74
2023/04/11 06:52:52;;;;;;;3.28;1.08;;;;;;;6.82;100.00;100815.00;4947422;28;20469;-73
2023/04/11 06:55:17;;;;;;;7.53;1.17;;;;;;;6.87;100.00;100806.97;4912477;28;20034;-75
2023/04/11 06:57:43;;;;;;;6.43;1.58;;;;;;;6.89;100.00;100818.28;4950323;28;20445;-74
2023/04/11 07:00:11;;;;;;;4.72;1.17;;;;;;;6.96;100.00;100816.34;4944948;28;21807;-74
2023/04/11 07:02:38;;;;;;;1.98;1.15;;;;;;;7.02;100.00;100821.41;4950105;28;20038;-74
2023/04/11 07:05:04;;;;;;;3.10;1.55;;;;;;;7.05;100.00;100821.31;4946770;28;20031;-74
2023/04/11 07:07:30;;;;;;;6.30;1.42;;;;;;;7.04;100.00;100830.13;4943708;28;20167;-74
2023/04/11 07:09:56;;;;;;;2.95;1.13;;;;;;;7.04;100.00;100835.41;4951232;28;20122;-75
2023/04/11 07:12:21;;;;;;;4.28;1.30;;;;;;;7.05;100.00;100837.13;4933684;28;20034;-74
2023/04/11 07:14:47;;;;;;;4.40;1.45;;;;;;;7.04;100.00;100827.50;4926773;28;20867;-74
2023/04/11 07:17:13;;;;;;;3.95;1.33;;;;;;;7.06;100.00;100838.84;4949427;28;20119;-74
2023/04/11 07:19:38;;;;;;;5.03;1.25;;;;;;;7.09;100.00;100844.03;4948422;28;20053;-74
2023/04/11 07:22:04;;;;;;;7.10;1.60;;;;;;;7.15;100.00;100842.97;4951639;28;20125;-74
2023/04/11 07:24:29;;;;;;;4.78;1.50;;;;;;;7.18;100.00;100851.63;4955298;28;20141;-74
2023/04/11 07:26:57;;;;;;;4.82;1.20;;;;;;;7.22;100.00;100859.41;4931566;28;20038;-74
2023/04/11 07:29:23;;;;;;;4.57;1.27;;;;;;;7.24;100.00;100854.97;4955120;28;20053;-75
2023/04/11 07:31:50;;;;;;;3.85;1.17;;;;;;;7.23;100.00;100861.16;4949236;28;20625;-74
2023/04/11 07:34:16;;;;;;;4.85;1.50;;;;;;;7.23;100.00;100858.53;4956068;28;20511;-75
2023/04/11 07:36:41;;;;;;;3.28;1.42;;;;;;;7.24;100.00;100857.63;4956646;28;20038;-75
2023/04/11 07:39:08;;;;;;;5.20;1.20;;;;;;;7.23;100.00;100872.53;4955572;28;21392;-75
2023/04/11 07:41:35;;;;;;;3.40;1.23;;;;;;;7.22;100.00;100864.69;4961739;28;20034;-74
2023/04/11 07:44:03;;;;;;;5.65;1.50;;;;;;;7.25;100.00;100864.59;4942502;28;20034;-74
2023/04/11 07:46:28;;;;;;;5.38;1.50;;;;;;;7.26;100.00;100883.00;4940096;28;20447;-74
2023/04/11 07:48:54;;;;;;;4.15;1.33;;;;;;;7.31;100.00;100874.94;4939144;28;22011;-74
2023/04/11 07:51:19;;;;;;;5.57;1.50;;;;;;;7.43;100.00;100876.31;4961680;28;20126;-75
2023/04/11 07:53:45;;;;;;;7.53;1.92;;;;;;;7.56;100.00;100897.88;4960665;28;20292;-74
2023/04/11 07:56:11;;;;;;;4.78;1.65;;;;;;;7.59;100.00;100897.78;4955555;28;20044;-76
2023/04/11 07:58:36;;;;;;;3.92;1.58;;;;;;;7.60;100.00;100881.06;4941237;28;20297;-74
2023/04/11 08:01:02;;;;;;;4.07;1.27;;;;;;;7.62;100.00;100889.75;4953745;28;20236;-74
2023/04/11 08:03:28;;;;;;;2.42;1.40;;;;;;;7.70;100.00;100892.16;4935222;28;20616;-74
2023/04/11 08:05:55;;;;;;;4.20;1.20;;;;;;;7.78;100.00;100894.56;4921108;28;20069;-74
2023/04/11 08:08:20;;;;;;;4.03;1.30;;;;;;;7.91;100.00;100898.50;4952259;28;20138;-74
2023/04/11 08:10:46;;;;;;;3.30;1.10;;;;;;;8.11;100.00;100896.94;4955453;28;20038;-75
2023/04/11 08:13:11;;;;;;;3.50;1.00;;;;;;;8.22;100.00;100894.81;4938195;28;20971;-75
2023/04/11 08:15:37;;;;;;;5.18;1.25;;;;;;;8.37;100.00;100903.09;4943907;28;20038;-75
2023/04/11 08:18:05;;;;;;;4.90;1.20;;;;;;;8.55;100.00;100904.25;4953238;28;22103;-74
2023/04/11 08:20:31;;;;;;;5.15;1.10;;;;;;;8.68;100.00;100912.59;4937543;28;20066;-75
2023/04/11 08:22:56;;;;;;;3.90;1.30;;;;;;;8.67;100.00;100913.53;4948861;28;20050;-74
2023/04/11 08:25:22;;;;;;;2.63;1.10;;;;;;;8.53;100.00;100906.97;4953822;28;21594;-74
2023/04/11 08:27:48;;;;;;;7.85;1.30;;;;;;;8.42;100.00;100911.72;4955488;28;22197;-75
2023/04/11 08:30:15;;;;;;;7.20;1.77;;;;;;;8.35;100.00;100923.41;4936931;28;20046;-74
2023/04/11 08:32:41;;;;;;;4.82;1.30;;;;;;;8.33;100.00;100926.09;4955354;28;20081;-74
2023/04/11 08:35:07;;;;;;;3.13;1.02;;;;;;;8.33;100.00;100933.16;4953149;28;20046;-74
2023/04/11 08:37:32;;;;;;;4.10;1.20;;;;;;;8.13;100.00;100932.91;4956390;28;20042;-74
2023/04/11 08:39:58;;;;;;;7.72;1.30;;;;;;;7.94;100.00;100932.66;4936520;28;20038;-75
2023/04/11 08:42:24;;;;;;;3.42;1.13;;;;;;;7.83;100.00;100948.84;4949532;28;21109;-74
2023/04/11 08:44:55;;;;;;;4.07;0.90;;;;;;;7.81;100.00;100941.88;4915947;28;20035;-74
2023/04/11 08:47:21;;;;;;;5.43;1.48;;;;;;;7.80;100.00;100948.06;4931819;28;20879;-75
2023/04/11 08:49:47;;;;;;;2.10;1.38;;;;;;;7.74;100.00;100947.34;4954539;28;20266;-75
2023/04/11 08:52:13;;;;;;;3.78;1.00;;;;;;;7.69;100.00;100949.25;4935131;28;21046;-74
2023/04/11 08:54:38;;;;;;;4.38;1.40;;;;;;;7.65;100.00;100945.03;4950230;28;20457;-75
2023/04/11 08:57:04;;;;;;;4.30;1.38;;;;;;;7.68;100.00;100968.63;4958501;28;20018;-73
2023/04/11 08:59:31;;;;;;;3.60;1.02;;;;;;;7.70;100.00;100955.41;4954473;28;20137;-73
2023/04/11 09:02:08;;;;;;;6.25;1.50;;;;;;;7.69;100.00;100962.44;4940895;28;20034;-73
2023/04/11 09:04:40;;;;;;;4.32;1.10;;;;;;;7.69;100.00;100962.44;4954444;28;20045;-73
2023/04/11 09:07:06;;;;;;;;;;;;;;;7.80;100.00;100958.63;4941286;28;20147;-74
2023/04/11 09:09:33;;;;;;;3.40;1.48;;;;;;;7.83;100.00;100951.47;4938025;28;20364;-74
2023/04/11 09:12:00;;;;;;;3.90;1.00;;;;;;;7.84;100.00;100958.47;4931282;28;20038;-74
2023/04/11 09:14:25;;;;;;;3.60;1.13;;;;;;;7.79;100.00;100963.00;4956870;28;20492;-74
2023/04/11 09:17:03;;;;;;;5.22;1.33;;;;;;;7.80;100.00;100963.88;4955146;28;20049;-74
2023/04/11 09:19:30;;;;;;;4.97;1.60;;;;;;;7.81;100.00;100961.22;4954656;28;20081;-74
2023/04/11 09:22:00;;;;;;;9.07;1.58;;;;;;;7.87;100.00;100960.13;4954409;28;20080;-74
2023/04/11 09:24:28;;;;;;;7.35;1.70;;;;;;;7.84;100.00;100962.88;4955291;28;20133;-74
2023/04/11 09:27:25;;;;;;;8.18;1.90;;;;;;;7.86;100.00;100968.97;4942007;28;20085;-74
2023/04/11 09:29:50;;;;;;;2.63;1.13;;;;;;;7.98;100.00;100950.13;4932254;28;20089;-74
2023/04/11 09:32:32;;;;;;;3.33;1.15;;;;;;;8.29;100.00;100964.06;4945908;28;20508;-74
2023/04/11 09:35:23;;;;;;;3.15;1.15;;;;;;;8.55;100.00;100955.25;4940618;28;20042;-74
2023/04/11 09:37:59;;;;;;;5.10;1.15;;;;;;;8.79;100.00;100957.97;4935458;28;20047;-74
2023/04/11 09:40:26;;;;;;;6.78;1.55;;;;;;;8.99;100.00;100964.25;4950964;28;20057;-74
2023/04/11 09:43:02;;;;;;;4.78;1.30;;;;;;;9.09;100.00;100948.94;4949377;28;23170;-74
2023/04/11 09:45:29;;;;;;;4.18;1.30;;;;;;;9.30;100.00;100956.97;4935900;28;20397;-75
2023/04/11 09:47:57;;;;;;;7.15;1.50;;;;;;;9.39;100.00;100964.56;4932178;28;20039;-74
2023/04/11 09:50:24;;;;;;;6.35;1.30;;;;;;;9.27;100.00;100963.25;4954217;28;20030;-74
2023/04/11 09:52:51;;;;;;;2.78;1.13;;;;;;;9.28;100.00;100964.97;4951883;28;20494;-73
2023/04/11 09:55:24;;;;;;;4.97;1.63;;;;;;;9.29;100.00;100979.91;4950349;28;20034;-75
2023/04/11 09:57:50;;;;;;;;;;;;;;;9.22;100.00;100976.63;4952903;28;20659;-74
2023/04/11 10:00:21;;;;;;;5.10;1.45;;;;;;;9.07;100.00;100993.91;4940357;28;19921;-74
2023/04/11 10:02:52;;;;;;;5.03;1.30;;;;;;;8.96;100.00;100978.47;4952070;28;20129;-74
2023/04/11 10:05:19;;;;;;;5.63;1.17;;;;;;;8.90;100.00;100991.88;4935188;28;20046;-73
2023/04/11 10:07:45;;;;;;;3.72;1.20;;;;;;;8.80;100.00;100991.34;4953113;28;20406;-73
2023/04/11 10:10:18;;;;;;;7.18;1.10;;;;;;;8.76;100.00;100992.38;4949163;28;22800;-73
2023/04/11 10:12:44;;;;;;;5.13;1.70;;;;;;;8.87;100.00;100988.50;4929193;28;20089;-73
2023/04/11 10:15:12;;;;;;;6.00;1.55;;;;;;;8.93;100.00;100985.63;4930620;28;20038;-73
2023/04/11 10:17:39;;;;;;;5.90;1.40;;;;;;;8.94;100.00;100992.63;4948061;28;20121;-73
2023/04/11 10:20:36;;;;;;;4.05;0.90;;;;;;;8.83;100.00;100980.66;4936217;28;20398;-73
2023/04/11 10:23:02;;;;;;;5.60;1.30;;;;;;;8.76;100.00;100991.53;4954337;28;20308;-74
2023/04/11 10:25:28;;;;;;;2.50;1.20;;;;;;;8.64;100.00;100988.41;4948543;28;20036;-74
2023/04/11 10:28:00;;;;;;;6.07;1.58;;;;;;;8.63;100.00;101006.91;4949926;28;20212;-74
2023/04/11 10:31:06;;;;;;;4.35;1.17;;;;;;;8.58;100.00;101007.06;4935534;28;20486;-74
2023/04/11 10:33:33;;;;;;;6.78;1.33;;;;;;;8.53;100.00;101020.44;4938632;28;20051;-75
2023/04/11 10:36:09;;;;;;;7.15;1.83;;;;;;;8.41;100.00;101024.28;4933508;28;20113;-74
2023/04/11 10:38:36;;;;;;;4.85;1.10;;;;;;;8.19;100.00;101052.31;4935986;28;20054;-74
2023/04/11 10:41:32;;;;;;;3.10;1.02;;;;;;;7.86;100.00;101040.16;4955509;28;20038;-74
2023/04/11 10:44:23;;;;;;;3.55;1.30;;;;;;;7.63;100.00;101028.50;4954649;28;20047;-74
2023/04/11 10:46:55;;;;;;;8.05;1.13;;;;;;;7.70;100.00;101027.44;4926321;28;20496;-74
2023/04/11 10:49:37;;;;;;;5.13;1.30;;;;;;;7.94;100.00;101010.88;4954566;28;20077;-73
2023/04/11 10:52:21;;;;;;;7.43;1.52;;;;;;;8.19;100.00;101032.09;4952051;28;20045;-73
2023/04/11 10:54:47;;;;;;;;;;;;;;;8.19;100.00;101034.72;4939932;28;20121;-74
2023/04/11 10:57:12;;;;;;;3.53;1.13;;;;;;;8.15;100.00;101031.31;4952400;28;19930;-74
2023/04/11 10:59:38;;;;;;;5.72;1.63;;;;;;;8.19;100.00;101036.47;4937043;28;20077;-74
2023/04/11 11:02:03;;;;;;;3.13;1.13;;;;;;;8.24;100.00;101024.00;4957054;28;20034;-74
2023/04/11 11:04:33;;;;;;;4.70;1.35;;;;;;;8.28;100.00;101031.75;4937141;28;20559;-74
2023/04/11 11:07:05;;;;;;;4.70;1.15;;;;;;;8.37;100.00;101035.88;4953904;28;20070;-74
2023/04/11 11:09:31;;;;;;;7.38;1.23;;;;;;;8.51;100.00;101046.00;4935708;28;20066;-74
2023/04/11 11:12:07;;;;;;;7.07;1.30;;;;;;;8.60;100.00;101054.53;4936969;28;20027;-74
2023/04/11 11:14:32;;;;;;;5.55;1.17;;;;;;;8.62;100.00;101060.63;4952980;28;20375;-74
2023/04/11 11:16:58;;;;;;;7.20;1.30;;;;;;;8.74;100.00;101065.47;4950659;28;20041;-74
2023/04/11 11:19:24;;;;;;;2.65;1.13;;;;;;;8.77;100.00;101064.53;4952474;28;20431;-74
2023/04/11 11:21:50;;;;;;;7.00;1.20;;;;;;;8.77;100.00;101065.38;4956155;28;20053;-74
2023/04/11 11:24:23;;;;;;;4.22;1.30;;;;;;;8.88;100.00;101066.78;4955029;28;20062;-74
2023/04/11 11:26:53;;;;;;;9.98;1.52;;;;;;;9.04;100.00;101077.69;4921742;28;20342;-74